ADDS METAR Data INFO
IDs: Format: Raw Decoded Include TAF

Data at: 2009 UTC 19 Oct 2017

KSLB 191955Z AUTO 18013G19KT 10SM CLR 24/07 A3001 RMK AO2
KSLB 191935Z AUTO 17012G19KT 10SM CLR 23/07 A3002 RMK AO2
KSLB 191915Z AUTO 18015KT 10SM CLR 23/06 A3003 RMK AO2
KSLB 191855Z AUTO 18012G18KT 140V200 10SM CLR 22/06 A3004 RMK AO2
KSLB 191835Z AUTO 19013KT 10SM CLR 22/06 A3005 RMK AO2
KSLB 191815Z AUTO 16011KT 10SM CLR 21/05 A3006 RMK AO2
KSLB 191755Z AUTO 18012KT 10SM CLR 21/04 A3007 RMK AO2
KSLB 191735Z AUTO 17013G19KT 9SM CLR 21/04 A3008 RMK AO2
KSLB 191715Z AUTO 15012G17KT 10SM CLR 20/02 A3009 RMK AO2
KSLB 191655Z AUTO 14010KT 10SM CLR 19/01 A3009 RMK AO2
KSLB 191635Z AUTO 15013G21KT 10SM CLR 18/M00 A3009 RMK AO2
KSLB 191615Z AUTO 15013G22KT 10SM CLR 18/M02 A3009 RMK AO2
KSLB 191555Z AUTO 15010G19KT 10SM CLR 17/M01 A3009 RMK AO2
KSLB 191535Z AUTO 16013KT 10SM CLR 16/M01 A3009 RMK AO2
KSLB 191515Z AUTO 15015KT 10SM CLR 15/M01 A3009 RMK AO2
KSLB 191455Z AUTO 16013G21KT 10SM CLR 13/M00 A3010 RMK AO2
KSLB 191435Z AUTO 16012KT 10SM CLR 13/01 A3009 RMK AO2
KSLB 191415Z AUTO 15010G15KT 10SM CLR 12/00 A3009 RMK AO2
KSLB 191355Z AUTO 15011KT 10SM CLR 10/01 A3008 RMK AO2
KSLB 191335Z AUTO 15009KT 10SM CLR 09/00 A3008 RMK AO2
KSLB 191315Z AUTO 15008KT 10SM CLR 08/00 A3008 RMK AO2
KSLB 191255Z AUTO 15008KT 10SM CLR 07/00 A3007 RMK AO2
KSLB 191235Z AUTO 14007KT 10SM CLR 07/M00 A3007 RMK AO2
KSLB 191215Z AUTO 14007KT 10SM CLR 07/00 A3007 RMK AO2
KSLB 191155Z AUTO 14008KT 10SM CLR 07/00 A3007 RMK AO2
KSLB 191135Z AUTO 14008KT 10SM CLR 08/M00 A3008 RMK AO2
KSLB 191115Z AUTO 15007KT 10SM CLR 07/M00 A3008 RMK AO2
KSLB 191055Z AUTO 13008KT 10SM CLR 06/M00 A3007 RMK AO2
KSLB 191035Z AUTO 12006KT 10SM CLR 06/M00 A3008 RMK AO2
KSLB 191015Z AUTO 11006KT 10SM CLR 06/00 A3008 RMK AO2
KSLB 190955Z AUTO 12006KT 10SM CLR 06/01 A3007 RMK AO2
KSLB 190935Z AUTO 11006KT 10SM CLR 08/M00 A3007 RMK AO2
KSLB 190915Z AUTO 07005KT 10SM CLR 08/01 A3007 RMK AO2
KSLB 190855Z AUTO 08004KT 10SM CLR 07/05 A3007 RMK AO2
KSLB 190835Z AUTO 07003KT 10SM CLR 07/05 A3008 RMK AO2
KSLB 190815Z AUTO 04005KT 10SM CLR 08/02 A3008 RMK AO2
KSLB 190755Z AUTO 06004KT 10SM CLR 08/02 A3007 RMK AO2
KSLB 190735Z AUTO 00000KT 10SM CLR 09/02 A3007 RMK AO2
KSLB 190715Z AUTO 00000KT 10SM CLR 09/02 A3007 RMK AO2
KSLB 190655Z AUTO 00000KT 10SM CLR 10/02 A3007 RMK AO2
KSLB 190635Z AUTO 01003KT 10SM CLR 10/01 A3007 RMK AO2
KSLB 190615Z AUTO 03004KT 10SM CLR 11/01 A3006 RMK AO2
KSLB 190555Z AUTO 06003KT 10SM CLR 10/01 A3005 RMK AO2
KSLB 190535Z AUTO 00000KT 10SM CLR 10/01 A3005 RMK AO2
KSLB 190515Z AUTO 10003KT 10SM CLR 10/02 A3005 RMK AO2
KSLB 190455Z AUTO 10004KT 10SM CLR 09/02 A3006 RMK AO2
KSLB 190435Z AUTO 09004KT 10SM CLR 09/03 A3005 RMK AO2
KSLB 190415Z AUTO 11003KT 10SM CLR 11/02 A3005 RMK AO2
KSLB 190355Z AUTO 05003KT 10SM CLR 13/02 A3005 RMK AO2
KSLB 190335Z AUTO 04005KT 10SM CLR 12/02 A3005 RMK AO2
KSLB 190315Z AUTO 04005KT 10SM CLR 13/02 A3005 RMK AO2
KSLB 190255Z AUTO 04004KT 10SM CLR 12/02 A3004 RMK AO2
KSLB 190235Z AUTO 03005KT 10SM CLR 14/02 A3005 RMK AO2
KSLB 190215Z AUTO 01006KT 10SM CLR 14/02 A3004 RMK AO2
KSLB 190155Z AUTO 01005KT 10SM CLR 15/02 A3004 RMK AO2
KSLB 190135Z AUTO 02005KT 10SM CLR 14/03 A3004 RMK AO2
KSLB 190115Z AUTO 03005KT 10SM CLR 13/04 A3003 RMK AO2
KSLB 190055Z AUTO 03005KT 10SM CLR 14/04 A3003 RMK AO2
KSLB 190035Z AUTO 02006KT 10SM CLR 17/04 A3002 RMK AO2
KSLB 190015Z AUTO 36004KT 10SM CLR 14/06 A3002 RMK AO2
KSLB 182355Z AUTO 00000KT 9SM CLR 17/05 A3001 RMK AO2
KSLB 182335Z AUTO 00000KT 10SM CLR 18/06 A3000 RMK AO2
KSLB 182315Z AUTO 00000KT 9SM CLR 18/07 A2999 RMK AO2
KSLB 182255Z AUTO 00000KT 10SM CLR 19/06 A2998 RMK AO2
KSLB 182235Z AUTO 01004KT 10SM CLR 20/06 A2997 RMK AO2
KSLB 182215Z AUTO 03006KT 10SM CLR 21/05 A2996 RMK AO2
KSLB 182155Z AUTO 03005KT 10SM CLR 21/05 A2995 RMK AO2
KSLB 182135Z AUTO 05008KT 10SM CLR 21/05 A2994 RMK AO2
KSLB 182115Z AUTO 04008KT 10SM CLR 21/05 A2994 RMK AO2
KSLB 182055Z AUTO 01010KT 10SM CLR 21/06 A2994 RMK AO2
KSLB 182035Z AUTO 01010KT 10SM CLR 21/07 A2994 RMK AO2
KSLB 182015Z AUTO 33007G12KT 290V350 10SM CLR 21/07 A2994 RMK AO2
KSLB 181955Z AUTO 32011KT 10SM CLR 21/07 A2993 RMK AO2
KSLB 181935Z AUTO 33009G15KT 10SM CLR 20/07 A2992 RMK AO2
KSLB 181915Z AUTO 29009G15KT 10SM CLR 20/07 A2992 RMK AO2
KSLB 181855Z AUTO 31010G15KT 10SM CLR 20/07 A2992 RMK AO2
KSLB 181835Z AUTO 27011G17KT 10SM CLR 20/07 A2992 RMK AO2
KSLB 181815Z AUTO 26013G21KT 10SM CLR 21/07 A2992 RMK AO2
KSLB 181755Z AUTO 26011G16KT 230V290 10SM CLR 21/09 A2992 RMK AO2
KSLB 181735Z AUTO 24014KT 10SM CLR 21/09 A2991 RMK AO2
KSLB 181715Z AUTO 25013G20KT 10SM CLR 20/09 A2990 RMK AO2
KSLB 181655Z AUTO 21014KT 10SM CLR 19/08 A2989 RMK AO2
KSLB 181635Z AUTO 21009G15KT 10SM CLR 17/08 A2988 RMK AO2
KSLB 181615Z AUTO 21013G19KT 10SM CLR 18/08 A2987 RMK AO2
KSLB 181555Z AUTO 21011G20KT 10SM CLR 18/08 A2987 RMK AO2
KSLB 181535Z AUTO 21013G19KT 10SM CLR 16/08 A2987 RMK AO2
KSLB 181515Z AUTO 20015KT 10SM CLR 15/08 A2988 RMK AO2
KSLB 181455Z AUTO 19014KT 10SM CLR 15/08 A2987 RMK AO2
KSLB 181435Z AUTO 20013KT 10SM CLR 13/08 A2987 RMK AO2
KSLB 181415Z AUTO 19013KT 10SM CLR 12/08 A2987 RMK AO2
KSLB 181355Z AUTO 20013KT 10SM CLR 11/08 A2986 RMK AO2
KSLB 181335Z AUTO 19012KT 10SM CLR 10/07 A2986 RMK AO2
KSLB 181315Z AUTO 18011KT 10SM CLR 09/07 A2986 RMK AO2
KSLB 181255Z AUTO 19009KT 10SM CLR 07/06 A2987 RMK AO2
KSLB 181235Z AUTO 18007KT 10SM CLR 07/06 A2988 RMK AO2
KSLB 181215Z AUTO 19008KT 10SM CLR 08/06 A2988 RMK AO2
KSLB 181155Z AUTO 20008KT 10SM CLR 09/07 A2988 RMK AO2
KSLB 181135Z AUTO 22008KT 10SM CLR 09/07 A2990 RMK AO2
KSLB 181115Z AUTO 21008KT 10SM CLR 10/07 A2989 RMK AO2
KSLB 181055Z AUTO 21008KT 10SM CLR 10/07 A2989 RMK AO2
KSLB 181035Z AUTO 20008KT 10SM CLR 09/07 A2989 RMK AO2
KSLB 181015Z AUTO 20009KT 10SM CLR 09/07 A2989 RMK AO2
KSLB 180955Z AUTO 20010KT 10SM CLR 09/07 A2989 RMK AO2
KSLB 180935Z AUTO 20009KT 10SM CLR 09/07 A2989 RMK AO2
KSLB 180915Z AUTO 19007KT 10SM CLR 08/06 A2989 RMK AO2
KSLB 180855Z AUTO 19009KT 10SM CLR 09/07 A2990 RMK AO2
KSLB 180835Z AUTO 18010KT 10SM CLR 09/07 A2990 RMK AO2
KSLB 180815Z AUTO 18010KT 10SM CLR 08/07 A2991 RMK AO2